Thunder radar more information blitzortung!


Varsler for Snø/Is  rain snow radar



Snø/Is Fra: 20-01-2020 01:00 Til: 21-01-2020 04:00 advarsel for: Snø/Is Level: Gul info button

Nearby METAR Reports

   
ENZV - Stavanger
Oppdatert: Jan 20 2020 9:20 pm
lett yr, For det meste Overskyet  
lett yr, For det meste Overskyet  
   Vind: Sør 4.1 m/s
Vind: Sør 4.1 m/s
Temperatur: 8°C
Wind Chill: 6°C
Duggpunkt: 7°C
Luftfuktighet: 93%
Barometer: 1033 hPa
Skyer: Mostly Cloudy
Sikt: 9 km
Detaljer skyer: Noen skyer 700 ft,
Delvis overskyet 1000 ft,
For det meste Overskyet 1300 ft
ENZV 202020Z 19008KT 9000 -DZ FEW007 SCT010 BKN013 08/07 Q1033 BECMG 25018KT TEMPO BKN009
ENCN - Kristiansand
Oppdatert: Jan 20 2020 9:20 pm
For det meste Overskyet  
For det meste Overskyet  
   Vind: SV 4.6 m/s
Vind: SV 4.6 m/s
Temperatur: 8°C
Wind Chill: 5°C
Duggpunkt: 5°C
Luftfuktighet: 82%
Barometer: 1031 hPa
Skyer: Mostly Cloudy
Sikt: More than 10 km
Detaljer skyer: For det meste Overskyet 1500 ft
ENCN 202020Z 23009KT 9999 BKN015 08/05 Q1031
ENBR - Bergen
Oppdatert: Jan 20 2020 9:20 pm
lett yr, Regn, Dis, Overskyet  
lett yr, Regn, Dis, Overskyet  
   Vind: SV 6.2 m/s
Vind: SV 6.2 m/s
Temperatur: 8°C
Wind Chill: 4°C
Duggpunkt: 8°C
Luftfuktighet: 100%
Barometer: 1028 hPa
Skyer: Overcast
Sikt: 2 km
Detaljer skyer: Overskyet 400 ft
ENBR 202020Z 22012KT 2000 -DZRA BR VV004 08/08 Q1028 TEMPO 25020G30KT 3500 -DZ BR RMK WIND 1200FT 24022KT
ENGM - Oslo
Oppdatert: Jan 20 2020 9:20 pm
Klart  
Klart  
   Vind: SSV 7.7 m/s
Vind: SSV 7.7 m/s
Temperatur: 5°C
Wind Chill: 0°C
Duggpunkt: 2°C
Luftfuktighet: 81%
Barometer: 1021 hPa
Sikt: More than 10 km
Detaljer skyer: Klart ft
ENGM 202020Z 20015KT CAVOK 05/02 Q1021 NOSIG
ENVA - Trondheim
Oppdatert: Jan 20 2020 9:20 pm
yr, Regn, For det meste Overskyet  
yr, Regn, For det meste Overskyet  
   Vind: VEST 10.8 m/s
Vind: VEST 10.8 m/s
Temperatur: 8°C
Wind Chill: 3°C
Duggpunkt: 7°C
Luftfuktighet: 93%
Barometer: 1011 hPa
Skyer: Mostly Cloudy
Sikt: 5 km
Detaljer skyer: Noen skyer 2000 ft,
For det meste Overskyet 3000 ft
ENVA 202020Z 27021KT 4500 DZRA FEW020 BKN030 08/07 Q1011 TEMPO 27030G45KT BKN014 RMK WIND 670FT 28022G39KT
ENTC - Tromsø
Oppdatert: Jan 20 2020 9:20 pm
Lette byger, Regn, Overskyet  
Lette byger, Regn, Overskyet  
   Vind: Sør 2.6 m/s
Vind: Sør 2.6 m/s
Temperatur: 2°C
Wind Chill: -1°C
Duggpunkt: 0°C
Luftfuktighet: 87%
Barometer: 988 hPa
Skyer: Overcast
Sikt: 8 km
Detaljer skyer: Delvis overskyet 1000 ft,
For det meste Overskyet 2600 ft,
Overskyet 4600 ft
ENTC 202020Z 19005KT 140V230 8000 -SHRA SCT010 BKN026 OVC046 02/00 Q0988 TEMPO 27015KT RMK WIND 2600FT /////KT

Script utviklet av  Saratoga-weather.org Tilpasset for tamplaten av  Weerstation Leuven

Du finner vår vær info også på:

European Weather Network

WeatherCloud

Weather Underground

AWEKAS

HAMweather, WeatherForYou, PWS Weather

Utrustning vi bruker:

vær-station
Davis VP2

vær-programmet
Weather Display

Davis VP2

Weather Display